createdAt,value
2022-12-31T05:47:39.207Z,14.00
2022-12-31T05:50:08.032Z,13.80
2022-12-31T05:52:36.852Z,13.90
2022-12-31T05:55:06.259Z,14.00
2022-12-31T05:57:34.341Z,14.00
2022-12-31T06:00:02.308Z,14.00
2022-12-31T06:02:30.294Z,14.00
2022-12-31T06:04:59.558Z,14.00
2022-12-31T06:07:27.708Z,14.00
2022-12-31T06:09:57.507Z,13.90
2022-12-31T06:12:25.503Z,13.90
2022-12-31T06:14:53.416Z,13.90
2022-12-31T06:17:22.562Z,14.00
2022-12-31T06:19:50.426Z,14.00
2022-12-31T06:22:19.775Z,13.90
2022-12-31T06:24:47.754Z,13.90
2022-12-31T06:27:15.676Z,13.80
2022-12-31T06:29:44.411Z,13.80
2022-12-31T06:32:12.326Z,13.90
2022-12-31T06:34:40.277Z,13.90
2022-12-31T06:37:08.193Z,13.80
2022-12-31T06:39:37.461Z,13.70
2022-12-31T06:42:05.746Z,13.60
2022-12-31T06:44:33.620Z,13.50
2022-12-31T06:47:01.640Z,13.40
2022-12-31T06:49:34.825Z,13.20
2022-12-31T06:52:05.780Z,13.00
2022-12-31T06:54:34.013Z,13.00
2022-12-31T06:57:04.107Z,13.10
2022-12-31T06:59:32.660Z,13.10
2022-12-31T07:02:12.444Z,12.90
2022-12-31T07:05:04.663Z,12.80
2022-12-31T07:07:35.949Z,12.70
2022-12-31T07:10:14.624Z,12.70
2022-12-31T07:13:10.027Z,12.60
2022-12-31T07:15:48.707Z,12.50
2022-12-31T07:18:28.949Z,12.50
2022-12-31T07:20:57.457Z,12.60
2022-12-31T07:23:25.877Z,12.70
2022-12-31T07:25:58.223Z,12.90
2022-12-31T07:28:39.987Z,12.80
2022-12-31T07:31:17.174Z,12.90
2022-12-31T07:33:56.076Z,12.90
2022-12-31T07:36:37.191Z,12.80
2022-12-31T07:39:12.062Z,12.80
2022-12-31T07:41:52.385Z,12.90
2022-12-31T07:44:42.037Z,12.90
2022-12-31T15:02:36.962Z,15.60
2022-12-31T15:05:16.416Z,15.60
2022-12-31T15:07:52.629Z,15.60
2022-12-31T15:10:23.870Z,15.60
2022-12-31T15:13:04.632Z,15.60
2022-12-31T15:15:43.589Z,15.50
2022-12-31T15:18:28.201Z,15.50
2022-12-31T15:21:30.391Z,15.40
2022-12-31T15:23:58.529Z,15.40
2022-12-31T15:26:28.376Z,15.40
2022-12-31T15:29:02.403Z,15.40
2022-12-31T15:31:32.077Z,15.20
2022-12-31T15:34:04.620Z,15.10
2022-12-31T15:36:35.775Z,15.00
2022-12-31T15:39:41.970Z,15.10
2022-12-31T15:42:47.152Z,15.20
2022-12-31T15:45:22.334Z,15.10
2022-12-31T15:47:56.042Z,15.10
2022-12-31T15:50:27.053Z,15.10
2022-12-31T15:52:57.472Z,15.00
2022-12-31T15:55:31.030Z,15.00
2022-12-31T15:58:04.160Z,15.10
2022-12-31T16:00:47.544Z,15.10
2022-12-31T16:03:22.664Z,15.10
2022-12-31T16:05:53.145Z,15.20
2022-12-31T16:08:23.675Z,15.10
2022-12-31T16:10:51.806Z,15.10
2022-12-31T16:13:22.927Z,15.10
2022-12-31T16:15:54.954Z,15.10
2022-12-31T16:18:23.412Z,15.10
2022-12-31T16:20:54.352Z,15.00
2022-12-31T16:23:24.221Z,15.10
2022-12-31T16:25:54.315Z,15.00
2022-12-31T16:28:31.535Z,14.90
2022-12-31T16:31:03.193Z,14.80
2022-12-31T16:33:32.473Z,14.80
2022-12-31T16:36:03.033Z,14.80
2022-12-31T16:38:36.552Z,14.70
2022-12-31T16:41:16.423Z,14.50
2022-12-31T16:43:45.625Z,14.60
2022-12-31T16:46:20.045Z,14.70
2022-12-31T16:48:51.110Z,14.70
2022-12-31T16:51:25.428Z,14.70
2022-12-31T16:53:54.056Z,14.80
2022-12-31T16:56:26.999Z,14.70
2022-12-31T16:59:01.284Z,14.80
2022-12-31T17:01:33.548Z,14.70
2022-12-31T17:04:03.984Z,14.70
2022-12-31T17:06:33.906Z,14.80
2022-12-31T17:09:20.592Z,14.80
2022-12-31T17:11:54.459Z,14.80
2022-12-31T17:14:27.170Z,14.80
2022-12-31T17:17:02.573Z,14.70
2022-12-31T17:19:42.972Z,14.70
2022-12-31T17:22:21.715Z,14.60
2022-12-31T17:24:59.807Z,14.60
2022-12-31T17:27:27.803Z,14.60
2022-12-31T17:29:55.757Z,14.60
2022-12-31T17:32:38.183Z,14.40
2022-12-31T17:35:28.809Z,14.40
2022-12-31T17:38:31.891Z,14.40
2022-12-31T17:41:15.234Z,14.30
2022-12-31T17:43:43.495Z,14.30
2022-12-31T17:46:13.882Z,14.30
2022-12-31T17:48:42.580Z,14.50
2022-12-31T17:51:10.650Z,14.60
2022-12-31T17:53:39.941Z,14.60
2022-12-31T17:56:16.717Z,14.70
2022-12-31T17:58:47.101Z,14.70
2022-12-31T18:01:17.910Z,14.80
2022-12-31T18:03:47.811Z,14.70
2022-12-31T18:06:17.283Z,14.70
2022-12-31T18:08:46.766Z,14.60
2022-12-31T18:11:17.921Z,14.70
2022-12-31T18:13:45.982Z,14.60
2022-12-31T18:16:13.994Z,14.70
2022-12-31T18:18:42.355Z,14.80
2022-12-31T18:21:17.068Z,14.70
2022-12-31T18:23:47.815Z,14.60
2022-12-31T18:26:17.412Z,14.50
2022-12-31T18:28:45.754Z,14.50
2022-12-31T18:31:16.673Z,14.50
2022-12-31T18:33:44.968Z,14.60
2022-12-31T18:36:14.366Z,14.50
2022-12-31T18:38:42.969Z,14.40
2022-12-31T18:41:19.099Z,14.30
2022-12-31T18:43:47.594Z,14.20
2022-12-31T18:46:18.968Z,14.20
2022-12-31T18:48:46.917Z,14.20
2022-12-31T18:51:16.926Z,14.20
2022-12-31T18:53:44.933Z,14.40
2022-12-31T18:56:15.802Z,14.40
2022-12-31T18:58:43.862Z,14.30
2022-12-31T19:01:27.137Z,14.30
2022-12-31T19:03:56.786Z,14.40
2022-12-31T19:06:25.143Z,14.30
2022-12-31T19:08:53.120Z,14.40
2022-12-31T19:11:23.195Z,14.40
2022-12-31T19:13:51.470Z,14.30
2022-12-31T19:16:19.496Z,14.30
2022-12-31T19:18:49.056Z,14.30
2022-12-31T19:21:18.652Z,14.10
2022-12-31T19:23:47.509Z,14.30
2022-12-31T19:26:17.292Z,14.40
2022-12-31T19:28:47.658Z,14.40
2022-12-31T19:31:15.718Z,14.30
2022-12-31T19:33:44.428Z,14.20
2022-12-31T19:36:18.221Z,14.10
2022-12-31T19:38:46.257Z,14.00
2022-12-31T19:41:19.659Z,14.10
2022-12-31T19:43:49.372Z,14.00
2022-12-31T19:46:19.258Z,13.90
2022-12-31T19:48:53.095Z,14.10
2022-12-31T19:51:29.843Z,14.20
2022-12-31T19:53:57.831Z,14.20
2022-12-31T19:56:25.795Z,14.00
2022-12-31T19:58:55.172Z,13.90
2022-12-31T20:01:25.716Z,13.90
2022-12-31T20:03:54.085Z,13.90
2022-12-31T20:06:26.166Z,13.90
2022-12-31T20:08:54.154Z,13.90
2022-12-31T20:11:25.317Z,13.90
2022-12-31T20:13:54.741Z,13.90
2022-12-31T20:16:24.396Z,13.90
2022-12-31T20:18:52.557Z,13.90
2022-12-31T20:21:22.183Z,13.90
2022-12-31T20:23:51.187Z,13.90
2022-12-31T20:26:20.288Z,14.00
2022-12-31T20:28:48.264Z,14.00
2022-12-31T20:31:19.618Z,14.10
2022-12-31T20:33:47.559Z,14.10
2022-12-31T20:36:16.973Z,13.90
2022-12-31T20:38:45.090Z,14.10
2022-12-31T20:41:16.477Z,14.10
2022-12-31T20:43:44.768Z,14.10
2022-12-31T20:46:15.582Z,14.10
2022-12-31T20:48:46.463Z,14.10
2022-12-31T20:51:15.857Z,13.90
2022-12-31T20:53:48.528Z,13.90
2022-12-31T20:56:17.442Z,13.90
2022-12-31T20:58:45.745Z,13.80
